Time;durP1;ratioP1;P1;durP2;ratioP2;P2;SDS_P1;SDS_P2;PMS_P1;PMS_P2;Temp;Humidity;BMP_temperature;BMP_pressure;BME280_temperature;BME280_humidity;BME280_pressure;Samples;Min_cycle;Max_cycle;Signal;HPM_P1;HPM_P2
2021/08/16 00:00:08;;;;;;;;;;;24.90;78.90;24.90;99536.00;;;;342493;28;92971;-90
2021/08/16 00:00:20;;;;;;;;;;;25.00;79.10;24.90;99535.00;;;;340607;28;82584;-90
2021/08/16 00:00:32;;;;;;;;;;;25.00;79.00;24.90;99534.00;;;;340022;28;92592;-90
2021/08/16 00:00:44;;;;;;;;;;;24.90;79.00;24.90;99538.00;;;;343216;28;82588;-90
2021/08/16 00:00:56;;;;;;;;;;;25.00;79.00;24.90;99533.00;;;;341321;28;92123;-90
2021/08/16 00:01:08;;;;;;;;;;;25.00;79.80;24.80;99531.00;;;;339127;28;83278;-91
2021/08/16 00:01:20;;;;;;;;;;;24.90;79.00;24.90;99533.00;;;;342722;28;90561;-90
2021/08/16 00:01:32;;;;;;;;;;;24.90;79.00;24.80;99540.00;;;;343163;28;83508;-90
2021/08/16 00:01:44;;;;;;;;;;;25.00;78.90;24.80;99543.00;;;;341317;27;90565;-90
2021/08/16 00:01:56;;;;;;;;;;;25.00;78.90;24.80;99531.00;;;;339876;28;83588;-90
2021/08/16 00:02:08;;;;;;;;;;;24.90;78.90;24.90;99534.00;;;;339969;28;90580;-91
2021/08/16 00:02:20;;;;;;;;;;;24.90;78.80;24.90;99535.00;;;;342981;28;83506;-91
2021/08/16 00:02:32;;;;;;;;;;;24.90;78.80;24.80;99532.00;;;;342528;28;91729;-90
2021/08/16 00:02:45;;;;;;;;;;;25.00;78.90;24.80;99541.00;;;;341651;28;83349;-90
2021/08/16 00:02:57;;;;;;;;;;;24.90;78.90;24.80;99537.00;;;;341432;28;91864;-91
2021/08/16 00:03:09;;;;;;;;;;;24.90;79.00;24.90;99532.00;;;;339202;28;83263;-91
2021/08/16 00:03:21;;;;;;;;;;;24.90;79.10;24.90;99535.00;;;;340016;28;91653;-90
2021/08/16 00:03:33;;;;;;;;;;;25.00;78.90;24.80;99535.00;;;;340514;28;82313;-90
2021/08/16 00:03:45;;;;;;;;;;;24.90;78.90;24.80;99533.00;;;;338710;28;91297;-89
2021/08/16 00:03:57;;;;;;;;;;;25.00;78.70;24.80;99538.00;;;;343168;28;83484;-90
2021/08/16 00:04:09;;;;;;;;;;;25.00;78.80;24.80;99543.00;;;;344054;28;92305;-90
2021/08/16 00:04:20;;;;;;;;;;;24.90;78.60;24.80;99535.00;;;;341916;28;82518;-89
2021/08/16 00:04:32;;;;;;;;;;;24.90;78.90;24.80;99539.00;;;;342775;28;89835;-90
2021/08/16 00:04:44;;;;;;;;;;;24.90;78.90;24.90;99532.00;;;;341299;28;82493;-90
2021/08/16 00:04:56;;;;;;;;;;;24.90;78.80;24.90;99540.00;;;;341461;28;90500;-90
2021/08/16 00:05:09;;;;;;;;;;;24.90;78.80;24.90;99530.00;;;;340452;28;83533;-92
2021/08/16 00:05:20;;;;;;;;;;;24.90;78.80;24.90;99530.00;;;;338280;28;90372;-90
2021/08/16 00:05:32;;;;;;;;;;;24.90;78.90;24.80;99529.00;;;;341959;28;82515;-90
2021/08/16 00:05:44;;;;;;;;;;;24.90;78.70;24.80;99539.00;;;;340111;28;90405;-92
2021/08/16 00:05:56;;;;;;;;;;;24.90;78.70;24.80;99538.00;;;;340280;28;83512;-90
2021/08/16 00:06:08;;;;;;;;;;;24.90;78.60;24.80;99544.00;;;;344127;28;92893;-90
2021/08/16 00:06:20;;;;;;;;;;;24.90;78.90;24.80;99537.00;;;;343235;28;82488;-90
2021/08/16 00:06:32;;;;;;;;;;;24.90;78.80;24.80;99533.00;;;;340126;28;91783;-90
2021/08/16 00:06:43;;;;;;;;;;;24.90;78.80;24.80;99539.00;;;;344492;28;83536;-90
2021/08/16 00:06:55;;;;;;;;;;;24.90;78.80;24.80;99544.00;;;;344128;28;92058;-90
2021/08/16 00:07:07;;;;;;;;;;;24.90;78.60;24.70;99538.00;;;;341913;28;83975;-90
2021/08/16 00:07:19;;;;;;;;;;;24.90;78.60;24.70;99535.00;;;;342583;28;90756;-91
2021/08/16 00:07:31;;;;;;;;;;;24.90;78.40;24.70;99536.00;;;;344583;28;83350;-90
2021/08/16 00:07:44;;;;;;;;;;;24.90;78.60;24.60;99537.00;;;;338761;28;92058;-90
2021/08/16 00:07:55;;;;;;;;;;;24.90;78.70;24.70;99550.00;;;;338854;28;83558;-89
2021/08/16 00:08:08;;;;;;;;;;;24.90;78.60;24.70;99538.00;;;;340878;28;92496;-91
2021/08/16 00:08:20;;;;;;;;;;;24.90;78.60;24.60;99538.00;;;;343250;28;83441;-90
2021/08/16 00:08:31;;;;;;;;;;;24.80;78.80;24.60;99535.00;;;;341349;28;91976;-90
2021/08/16 00:08:43;;;;;;;;;;;24.80;78.70;24.60;99534.00;;;;340498;28;82474;-89
2021/08/16 00:08:55;;;;;;;;;;;24.80;78.70;24.60;99535.00;;;;337407;28;91623;-90
2021/08/16 00:09:07;;;;;;;;;;;24.80;78.80;24.60;99545.00;;;;341874;28;83429;-89
2021/08/16 00:09:19;;;;;;;;;;;24.80;78.90;24.60;99545.00;;;;341371;28;92437;-90
2021/08/16 00:09:31;;;;;;;;;;;24.80;78.80;24.60;99545.00;;;;341867;28;82511;-91
2021/08/16 00:09:43;;;;;;;;;;;24.80;78.90;24.60;99536.00;;;;340104;28;91476;-90
2021/08/16 00:09:54;;;;;;;;;;;24.80;78.80;24.60;99545.00;;;;340419;28;83512;-90
2021/08/16 00:10:07;;;;;;;;;;;24.80;78.90;24.60;99535.00;;;;342724;28;92591;-89
2021/08/16 00:10:18;;;;;;;;;;;24.80;78.90;24.60;99533.00;;;;343278;28;83384;-90
2021/08/16 00:10:30;;;;;;;;;;;24.80;79.00;24.60;99539.00;;;;341337;28;92033;-91
2021/08/16 00:10:42;;;;;;;;;;;24.70;78.90;24.60;99535.00;;;;340587;28;82480;-89
2021/08/16 00:10:54;;;;;;;;;;;24.70;78.80;24.60;99534.00;;;;338821;28;91234;-89
2021/08/16 00:11:06;;;;;;;;;;;24.80;79.10;24.60;99532.00;;;;342588;28;83431;-90
2021/08/16 00:11:18;;;;;;;;;;;24.80;79.20;24.60;99538.00;;;;348415;27;91655;-90
2021/08/16 00:11:30;;;;;;;;;;;24.70;79.10;24.60;99531.00;;;;344942;28;83339;-89
2021/08/16 00:11:41;;;;;;;;;;;24.70;79.10;24.60;99537.00;;;;340124;28;90260;-90
2021/08/16 00:11:53;;;;;;;;;;;24.70;79.20;24.60;99535.00;;;;341650;28;83603;-90
2021/08/16 00:12:06;;;;;;;;;;;24.70;79.10;24.50;99537.00;;;;342514;28;92589;-90
2021/08/16 00:12:17;;;;;;;;;;;24.70;79.20;24.60;99529.00;;;;340538;28;83364;-90
2021/08/16 00:12:29;;;;;;;;;;;24.70;79.00;24.50;99532.00;;;;340046;28;90936;-90
2021/08/16 00:12:41;;;;;;;;;;;24.70;79.10;24.50;99532.00;;;;343222;28;83511;-90
2021/08/16 00:12:54;;;;;;;;;;;24.70;79.10;24.50;99533.00;;;;344253;28;88714;-90
2021/08/16 00:13:06;;;;;;;;;;;24.70;79.10;24.50;99528.00;;;;340632;28;83398;-91
2021/08/16 00:13:20;;;;;;;;;;;24.70;79.30;24.50;99528.00;;;;340117;28;90770;-89
2021/08/16 00:13:32;;;;;;;;;;;24.70;79.20;24.50;99530.00;;;;338966;28;82694;-90
2021/08/16 00:13:43;;;;;;;;;;;24.70;79.30;24.50;99527.00;;;;341476;28;90259;-89
2021/08/16 00:13:55;;;;;;;;;;;24.70;79.30;24.60;99536.00;;;;342807;28;83639;-90
2021/08/16 00:14:07;;;;;;;;;;;24.70;79.40;24.60;99530.00;;;;340019;28;91513;-91
2021/08/16 00:14:19;;;;;;;;;;;24.70;79.40;24.60;99535.00;;;;343215;28;83457;-90
2021/08/16 00:14:31;;;;;;;;;;;24.70;79.40;24.60;99535.00;;;;345583;28;90740;-90
2021/08/16 00:14:43;;;;;;;;;;;24.70;79.40;24.60;99529.00;;;;340463;28;83517;-90
2021/08/16 00:14:55;;;;;;;;;;;24.70;79.60;24.60;99538.00;;;;339907;28;91638;-90
2021/08/16 00:15:07;;;;;;;;;;;24.70;79.50;24.60;99535.00;;;;343143;28;82512;-91
2021/08/16 00:15:19;;;;;;;;;;;24.70;79.50;24.60;99529.00;;;;340088;28;91896;-90
2021/08/16 00:15:31;;;;;;;;;;;24.70;79.50;24.60;99528.00;;;;339203;28;82548;-90
2021/08/16 00:15:43;;;;;;;;;;;24.70;79.60;24.60;99536.00;;;;337516;28;90301;-90
2021/08/16 00:15:55;;;;;;;;;;;24.70;79.30;24.60;99535.00;;;;341669;28;82535;-90
2021/08/16 00:16:07;;;;;;;;;;;24.70;79.70;24.60;99534.00;;;;340034;28;93047;-90
2021/08/16 00:16:19;;;;;;;;;;;24.70;79.40;24.60;99535.00;;;;346261;28;82499;-90
2021/08/16 00:16:32;;;;;;;;;;;24.70;79.50;24.50;99532.00;;;;340176;28;90237;-90
2021/08/16 00:16:43;;;;;;;;;;;24.70;79.10;24.50;99530.00;;;;341656;28;82575;-90
2021/08/16 00:16:56;;;;;;;;;;;24.60;79.20;24.50;99538.00;;;;340561;28;91595;-89
2021/08/16 00:17:08;;;;;;;;;;;24.70;79.30;24.50;99534.00;;;;343193;28;83596;-90
2021/08/16 00:17:20;;;;;;;;;;;24.60;79.30;24.50;99529.00;;;;340718;28;91422;-90
2021/08/16 00:17:31;;;;;;;;;;;24.60;79.30;24.50;99538.00;;;;340561;28;82461;-90
2021/08/16 00:17:44;;;;;;;;;;;24.60;79.50;24.60;99536.00;;;;340098;28;91757;-90
2021/08/16 00:17:58;;;;;;;;;;;24.60;79.50;24.60;99534.00;;;;342960;28;83535;-90
2021/08/16 00:18:11;;;;;;;;;;;24.60;79.50;24.60;99541.00;;;;341445;28;91730;-90
2021/08/16 00:18:23;;;;;;;;;;;24.60;79.40;24.60;99541.00;;;;340307;28;82509;-89
2021/08/16 00:18:35;;;;;;;;;;;24.60;79.50;24.60;99538.00;;;;341345;28;92053;-91
2021/08/16 00:18:48;;;;;;;;;;;24.60;79.40;24.60;99534.00;;;;341889;28;83405;-90
2021/08/16 00:19:00;;;;;;;;;;;24.70;79.40;24.60;99543.00;;;;340068;28;91710;-90
2021/08/16 00:19:12;;;;;;;;;;;24.70;79.50;24.60;99540.00;;;;343120;28;83332;-91
2021/08/16 00:19:25;;;;;;;;;;;24.70;79.40;24.60;99536.00;;;;342736;28;91639;-90
2021/08/16 00:19:37;;;;;;;;;;;24.70;79.50;24.60;99537.00;;;;343281;28;82572;-90
2021/08/16 00:19:49;;;;;;;;;;;24.60;79.40;24.60;99542.00;;;;341597;27;90590;-90
2021/08/16 00:20:01;;;;;;;;;;;24.60;79.40;24.60;99539.00;;;;339680;28;83498;-90
2021/08/16 00:20:13;;;;;;;;;;;24.70;79.70;24.50;99521.00;;;;341435;28;92504;-90
2021/08/16 00:20:25;;;;;;;;;;;24.70;79.10;24.50;99536.00;;;;340539;28;83412;-90
2021/08/16 00:20:37;;;;;;;;;;;24.60;79.10;24.50;99535.00;;;;340014;28;91641;-90
2021/08/16 00:20:49;;;;;;;;;;;24.70;79.40;24.50;99532.00;;;;343123;27;83403;-90
2021/08/16 00:21:02;;;;;;;;;;;24.60;79.30;24.50;99543.00;;;;341400;28;90724;-91
2021/08/16 00:21:14;;;;;;;;;;;24.60;79.50;24.50;99535.00;;;;339107;28;83468;-91
2021/08/16 00:21:26;;;;;;;;;;;24.60;79.20;24.50;99534.00;;;;341116;28;90607;-90
2021/08/16 00:21:37;;;;;;;;;;;24.60;79.20;24.50;99531.00;;;;337878;28;83431;-90
2021/08/16 00:21:49;;;;;;;;;;;24.60;79.20;24.50;99540.00;;;;341508;28;90301;-90
2021/08/16 00:22:01;;;;;;;;;;;24.60;79.30;24.50;99540.00;;;;340407;28;82636;-90
2021/08/16 00:22:14;;;;;;;;;;;24.60;79.40;24.50;99534.00;;;;338795;28;91269;-90
2021/08/16 00:22:25;;;;;;;;;;;24.60;79.40;24.50;99538.00;;;;341786;28;83494;-90
2021/08/16 00:22:37;;;;;;;;;;;24.60;79.20;24.50;99536.00;;;;345581;28;92232;-90
2021/08/16 00:22:49;;;;;;;;;;;24.60;79.20;24.50;99542.00;;;;342661;28;83635;-90
2021/08/16 00:23:01;;;;;;;;;;;24.60;79.20;24.50;99535.00;;;;341375;28;90537;-90
2021/08/16 00:23:13;;;;;;;;;;;24.60;79.20;24.50;99536.00;;;;337888;28;83362;-89
2021/08/16 00:23:24;;;;;;;;;;;24.60;79.30;24.50;99536.00;;;;340104;28;91337;-90
2021/08/16 00:23:36;;;;;;;;;;;24.60;79.40;24.50;99537.00;;;;340489;28;83447;-91
2021/08/16 00:23:48;;;;;;;;;;;24.60;79.10;24.50;99532.00;;;;341349;28;91670;-90
2021/08/16 00:24:00;;;;;;;;;;;24.60;79.00;24.50;99540.00;;;;341779;28;83391;-90
2021/08/16 00:24:12;;;;;;;;;;;24.60;79.10;24.50;99539.00;;;;344052;28;92075;-90
2021/08/16 00:24:23;;;;;;;;;;;24.60;79.00;24.50;99536.00;;;;347524;28;83538;-90
2021/08/16 00:24:35;;;;;;;;;;;24.60;79.10;24.50;99534.00;;;;340128;28;88083;-90
2021/08/16 00:24:49;;;;;;;;;;;24.60;79.00;24.50;99538.00;;;;341835;28;83445;-89
2021/08/16 00:25:01;;;;;;;;;;;24.60;79.00;24.50;99541.00;;;;342780;28;90534;-90
2021/08/16 00:25:13;;;;;;;;;;;24.60;79.20;24.50;99532.00;;;;339237;28;83372;-90
2021/08/16 00:25:24;;;;;;;;;;;24.60;79.10;24.50;99542.00;;;;337444;28;90930;-90
2021/08/16 00:25:36;;;;;;;;;;;24.60;79.10;24.50;99539.00;;;;343093;28;83349;-90
2021/08/16 00:25:48;;;;;;;;;;;24.60;79.40;24.50;99538.00;;;;344188;27;90905;-92
2021/08/16 00:26:00;;;;;;;;;;;24.60;79.40;24.50;99535.00;;;;340465;28;83406;-90
2021/08/16 00:26:13;;;;;;;;;;;24.60;79.20;24.50;99543.00;;;;340029;28;92361;-90
2021/08/16 00:26:24;;;;;;;;;;;24.60;79.30;24.50;99535.00;;;;336482;28;83430;-90
2021/08/16 00:26:36;;;;;;;;;;;24.60;79.50;24.50;99539.00;;;;341322;28;91585;-90
2021/08/16 00:26:48;;;;;;;;;;;24.60;79.40;24.50;99538.00;;;;340397;28;84114;-90
2021/08/16 00:27:00;;;;;;;;;;;24.60;79.40;24.50;99541.00;;;;341385;28;91521;-90
2021/08/16 00:27:12;;;;;;;;;;;24.60;79.10;24.50;99538.00;;;;341591;28;83463;-90
2021/08/16 00:27:24;;;;;;;;;;;24.60;79.30;24.50;99536.00;;;;339920;28;92299;-90
2021/08/16 00:27:35;;;;;;;;;;;24.60;79.40;24.50;99538.00;;;;341852;28;83414;-90
2021/08/16 00:27:47;;;;;;;;;;;24.60;79.30;24.50;99536.00;;;;341392;28;91568;-90
2021/08/16 00:28:00;;;;;;;;;;;24.60;79.30;24.50;99539.00;;;;343159;28;83457;-90
2021/08/16 00:28:11;;;;;;;;;;;24.60;79.40;24.50;99548.00;;;;342729;28;92910;-90
2021/08/16 00:28:23;;;;;;;;;;;24.60;79.40;24.50;99542.00;;;;341892;28;82478;-90
2021/08/16 00:28:35;;;;;;;;;;;24.60;79.30;24.50;99546.00;;;;341269;28;92089;-90
2021/08/16 00:28:47;;;;;;;;;;;24.60;79.80;24.50;99544.00;;;;340319;28;82588;-89
2021/08/16 00:28:59;;;;;;;;;;;24.60;79.80;24.60;99549.00;;;;341441;28;91802;-90
2021/08/16 00:29:11;;;;;;;;;;;24.60;79.70;24.60;99542.00;;;;340363;28;83386;-89
2021/08/16 00:29:23;;;;;;;;;;;24.60;79.70;24.60;99536.00;;;;342810;28;90610;-90
2021/08/16 00:29:35;;;;;;;;;;;24.60;79.70;24.50;99541.00;;;;339170;28;83474;-90
2021/08/16 00:29:47;;;;;;;;;;;24.60;79.70;24.60;99539.00;;;;340127;28;91522;-90
2021/08/16 00:29:58;;;;;;;;;;;24.60;79.60;24.60;99543.00;;;;340317;28;83460;-92
2021/08/16 00:30:11;;;;;;;;;;;24.60;79.50;24.60;99547.00;;;;341174;28;92369;-90
2021/08/16 00:30:23;;;;;;;;;;;24.60;79.50;24.60;99542.00;;;;340579;28;83443;-90
2021/08/16 00:30:35;;;;;;;;;;;24.60;79.40;24.60;99540.00;;;;342728;28;91870;-90
2021/08/16 00:30:47;;;;;;;;;;;24.60;79.20;24.60;99535.00;;;;341876;28;83387;-91
2021/08/16 00:30:58;;;;;;;;;;;24.60;79.20;24.60;99541.00;;;;340109;28;90078;-89
2021/08/16 00:31:10;;;;;;;;;;;24.60;79.20;24.60;99545.00;;;;341791;28;83444;-90
2021/08/16 00:31:22;;;;;;;;;;;24.60;79.40;24.60;99549.00;;;;338577;28;92038;-90
2021/08/16 00:31:34;;;;;;;;;;;24.60;79.30;24.60;99548.00;;;;340450;28;83418;-90
2021/08/16 00:31:46;;;;;;;;;;;24.60;79.10;24.60;99538.00;;;;338406;28;91487;-90
2021/08/16 00:31:58;;;;;;;;;;;24.60;79.20;24.60;99546.00;;;;341593;28;82571;-91
2021/08/16 00:32:10;;;;;;;;;;;24.60;79.30;24.60;99549.00;;;;344005;28;92524;-90
2021/08/16 00:32:21;;;;;;;;;;;24.60;79.30;24.60;99548.00;;;;350307;27;83431;-90
2021/08/16 00:32:33;;;;;;;;;;;24.60;79.10;24.60;99552.00;;;;337342;28;92325;-90
2021/08/16 00:32:45;;;;;;;;;;;24.60;79.10;24.60;99546.00;;;;339181;28;83482;-89
2021/08/16 00:32:57;;;;;;;;;;;24.60;79.00;24.60;99550.00;;;;337406;28;91403;-91
2021/08/16 00:33:09;;;;;;;;;;;24.60;79.00;24.60;99546.00;;;;341757;28;83394;-89
2021/08/16 00:33:21;;;;;;;;;;;24.60;79.10;24.60;99560.00;;;;341148;28;91742;-90
2021/08/16 00:33:33;;;;;;;;;;;24.60;79.10;24.60;99552.00;;;;340495;28;83339;-90
2021/08/16 00:33:45;;;;;;;;;;;24.60;79.00;24.60;99545.00;;;;342836;28;88413;-90
2021/08/16 00:33:57;;;;;;;;;;;24.60;79.00;24.60;99550.00;;;;341718;28;83550;-91
2021/08/16 00:34:09;;;;;;;;;;;24.60;78.90;24.50;99551.00;;;;337336;28;91557;-90
2021/08/16 00:34:21;;;;;;;;;;;24.60;79.00;24.60;99548.00;;;;341951;28;82471;-90
2021/08/16 00:34:33;;;;;;;;;;;24.70;79.00;24.60;99552.00;;;;341270;28;91555;-90
2021/08/16 00:34:44;;;;;;;;;;;24.60;79.00;24.60;99550.00;;;;336325;28;82535;-90
2021/08/16 00:34:56;;;;;;;;;;;24.60;79.00;24.60;99548.00;;;;339497;28;91555;-89
2021/08/16 00:35:08;;;;;;;;;;;24.60;79.40;24.60;99538.00;;;;338999;28;83590;-91
2021/08/16 00:35:20;;;;;;;;;;;24.60;79.50;24.50;99548.00;;;;339485;28;91387;-90
2021/08/16 00:35:32;;;;;;;;;;;24.60;79.20;24.50;99547.00;;;;343163;28;83447;-90
2021/08/16 00:35:44;;;;;;;;;;;24.70;79.30;24.50;99545.00;;;;340191;28;90397;-90
2021/08/16 00:35:56;;;;;;;;;;;24.60;79.30;24.50;99547.00;;;;340302;28;83572;-90
2021/08/16 00:36:08;;;;;;;;;;;24.60;79.20;24.50;99548.00;;;;341352;28;92465;-91
2021/08/16 00:36:20;;;;;;;;;;;24.60;79.20;24.50;99545.00;;;;339084;28;83596;-90
2021/08/16 00:36:32;;;;;;;;;;;24.60;79.30;24.60;99551.00;;;;340107;28;91183;-90
2021/08/16 00:36:44;;;;;;;;;;;24.60;79.10;24.50;99550.00;;;;340536;28;83577;-90
2021/08/16 00:36:55;;;;;;;;;;;24.60;79.00;24.50;99554.00;;;;340099;28;90254;-90
2021/08/16 00:37:07;;;;;;;;;;;24.60;79.40;24.60;99545.00;;;;341663;28;82522;-91
2021/08/16 00:37:19;;;;;;;;;;;24.60;79.40;24.60;99541.00;;;;338660;28;91328;-90
2021/08/16 00:37:31;;;;;;;;;;;24.60;79.30;24.60;99552.00;;;;341879;28;82444;-90
2021/08/16 00:37:45;;;;;;;;;;;24.60;79.20;24.60;99556.00;;;;342372;27;92465;-91
2021/08/16 00:37:58;;;;;;;;;;;24.60;79.40;24.60;99549.00;;;;340356;28;82696;-90
2021/08/16 00:38:09;;;;;;;;;;;24.60;79.50;24.60;99554.00;;;;341301;28;91374;-89
2021/08/16 00:38:22;;;;;;;;;;;24.60;79.50;24.60;99554.00;;;;346053;28;83524;-90
2021/08/16 00:38:34;;;;;;;;;;;24.60;79.30;24.60;99551.00;;;;347044;28;90636;-91
2021/08/16 00:38:46;;;;;;;;;;;24.60;79.40;24.60;99547.00;;;;341763;28;83313;-91
2021/08/16 00:38:58;;;;;;;;;;;24.70;79.50;24.60;99556.00;;;;341394;28;90726;-90
2021/08/16 00:39:10;;;;;;;;;;;24.60;79.60;24.60;99549.00;;;;340467;28;83382;-90
2021/08/16 00:39:21;;;;;;;;;;;24.70;79.60;24.60;99556.00;;;;341411;28;90585;-90
2021/08/16 00:39:33;;;;;;;;;;;24.60;79.40;24.70;99551.00;;;;340562;28;83394;-89
2021/08/16 00:39:45;;;;;;;;;;;24.60;79.20;24.70;99552.00;;;;341201;28;90696;-90
2021/08/16 00:39:57;;;;;;;;;;;24.60;79.30;24.60;99560.00;;;;343038;28;83424;-89
2021/08/16 00:40:09;;;;;;;;;;;24.60;79.30;24.60;99550.00;;;;341355;28;91083;-90
2021/08/16 00:40:21;;;;;;;;;;;24.70;79.70;24.60;99561.00;;;;341801;28;83763;-89
2021/08/16 00:40:34;;;;;;;;;;;24.70;79.50;24.60;99554.00;;;;341328;28;90590;-90
2021/08/16 00:40:46;;;;;;;;;;;24.70;79.20;24.60;99556.00;;;;343262;27;83462;-90
2021/08/16 00:40:57;;;;;;;;;;;24.70;79.00;24.60;99555.00;;;;342313;28;91642;-90
2021/08/16 00:41:10;;;;;;;;;;;24.70;79.00;24.60;99549.00;;;;341820;28;82496;-90
2021/08/16 00:41:22;;;;;;;;;;;24.70;78.70;24.60;99555.00;;;;341033;28;91730;-90
2021/08/16 00:41:35;;;;;;;;;;;24.70;78.80;24.60;99549.00;;;;339167;28;83415;-90
2021/08/16 00:41:47;;;;;;;;;;;24.70;78.80;24.60;99554.00;;;;338711;28;91365;-90
2021/08/16 00:41:59;;;;;;;;;;;24.70;78.90;24.60;99556.00;;;;343129;28;83451;-90
2021/08/16 00:42:12;;;;;;;;;;;24.70;79.20;24.60;99555.00;;;;345086;28;91307;-90
2021/08/16 00:42:24;;;;;;;;;;;24.70;79.20;24.60;99552.00;;;;343200;27;83446;-89
2021/08/16 00:42:37;;;;;;;;;;;24.70;79.10;24.50;99552.00;;;;338634;28;90202;-90
2021/08/16 00:42:49;;;;;;;;;;;24.60;79.10;24.50;99552.00;;;;341912;28;83316;-92
2021/08/16 00:43:00;;;;;;;;;;;24.70;78.90;24.50;99556.00;;;;341163;28;91769;-90
2021/08/16 00:43:12;;;;;;;;;;;24.60;79.00;24.50;99552.00;;;;340541;28;82484;-90
2021/08/16 00:43:24;;;;;;;;;;;24.60;78.90;24.50;99553.00;;;;342681;28;90181;-90
2021/08/16 00:43:36;;;;;;;;;;;24.60;79.00;24.50;99550.00;;;;343295;28;82544;-89
2021/08/16 00:43:48;;;;;;;;;;;24.60;79.00;24.50;99554.00;;;;340920;28;90702;-90
2021/08/16 00:44:00;;;;;;;;;;;24.60;79.00;24.50;99551.00;;;;340279;28;83544;-90
2021/08/16 00:44:12;;;;;;;;;;;24.60;79.00;24.50;99556.00;;;;338712;28;92609;-90
2021/08/16 00:44:24;;;;;;;;;;;24.60;79.00;24.60;99553.00;;;;341728;28;83542;-89
2021/08/16 00:44:36;;;;;;;;;;;24.60;79.00;24.50;99555.00;;;;339878;28;92095;-90
2021/08/16 00:44:48;;;;;;;;;;;24.60;78.90;24.50;99546.00;;;;342026;28;83473;-91
2021/08/16 00:45:03;;;;;;;;;;;24.60;79.10;24.50;99550.00;;;;340092;28;92034;-90
2021/08/16 00:45:14;;;;;;;;;;;24.60;79.20;24.50;99551.00;;;;339153;28;83424;-90
2021/08/16 00:45:26;;;;;;;;;;;24.60;79.00;24.50;99561.00;;;;341391;28;91166;-90
2021/08/16 00:45:38;;;;;;;;;;;24.60;79.10;24.50;99554.00;;;;343155;28;83468;-89
2021/08/16 00:45:50;;;;;;;;;;;24.60;79.10;24.50;99561.00;;;;342449;28;90488;-91
2021/08/16 00:46:02;;;;;;;;;;;24.60;79.10;24.60;99555.00;;;;343082;28;82370;-89
2021/08/16 00:46:14;;;;;;;;;;;24.60;79.20;24.50;99560.00;;;;338701;28;91796;-90
2021/08/16 00:46:27;;;;;;;;;;;24.60;79.10;24.50;99561.00;;;;343162;28;83472;-90
2021/08/16 00:46:39;;;;;;;;;;;24.60;79.20;24.50;99555.00;;;;342727;28;91578;-91
2021/08/16 00:46:51;;;;;;;;;;;24.60;79.00;24.50;99556.00;;;;338641;28;83718;-90
2021/08/16 00:47:03;;;;;;;;;;;24.60;79.00;24.50;99557.00;;;;340595;28;92236;-90
2021/08/16 00:47:15;;;;;;;;;;;24.60;79.20;24.50;99556.00;;;;340404;28;83442;-90
2021/08/16 00:47:27;;;;;;;;;;;24.60;79.10;24.50;99554.00;;;;340051;28;91576;-90
2021/08/16 00:47:39;;;;;;;;;;;24.60;79.00;24.50;99555.00;;;;340505;28;83472;-90
2021/08/16 00:47:50;;;;;;;;;;;24.60;79.20;24.50;99554.00;;;;340011;28;92036;-90
2021/08/16 00:48:03;;;;;;;;;;;24.60;79.10;24.50;99565.00;;;;350001;27;83504;-90
2021/08/16 00:48:15;;;;;;;;;;;24.60;79.00;24.50;99557.00;;;;341228;28;91227;-90
2021/08/16 00:48:27;;;;;;;;;;;24.60;79.10;24.50;99554.00;;;;340455;28;82516;-90
2021/08/16 00:48:41;;;;;;;;;;;24.60;79.10;24.50;99543.00;;;;342789;28;89189;-90
2021/08/16 00:48:54;;;;;;;;;;;24.60;79.60;24.50;99554.00;;;;340467;28;82502;-90
2021/08/16 00:49:05;;;;;;;;;;;24.60;79.60;24.50;99554.00;;;;341460;28;91259;-90
2021/08/16 00:49:17;;;;;;;;;;;24.60;79.50;24.50;99548.00;;;;341754;28;83474;-90
2021/08/16 00:49:29;;;;;;;;;;;24.60;79.30;24.50;99551.00;;;;339997;28;91574;-90
2021/08/16 00:49:41;;;;;;;;;;;24.60;79.40;24.60;99560.00;;;;343287;28;82521;-90
2021/08/16 00:49:53;;;;;;;;;;;24.60;79.40;24.50;99551.00;;;;336403;28;95935;-90
2021/08/16 00:50:06;;;;;;;;;;;24.60;79.30;24.50;99550.00;;;;342543;28;83534;-90
2021/08/16 00:50:18;;;;;;;;;;;24.60;79.30;24.60;99552.00;;;;341268;28;92359;-90
2021/08/16 00:50:30;;;;;;;;;;;24.60;79.20;24.60;99547.00;;;;340448;28;83520;-90
2021/08/16 00:50:42;;;;;;;;;;;24.60;79.30;24.60;99546.00;;;;340112;28;90196;-90
2021/08/16 00:50:53;;;;;;;;;;;24.60;79.20;24.60;99556.00;;;;338731;28;83523;-90
2021/08/16 00:51:05;;;;;;;;;;;24.60;79.20;24.60;99548.00;;;;338541;28;92170;-90
2021/08/16 00:51:17;;;;;;;;;;;24.60;79.20;24.60;99546.00;;;;340299;28;82468;-90
2021/08/16 00:51:31;;;;;;;;;;;24.60;79.20;24.60;99556.00;;;;341439;28;90542;-90
2021/08/16 00:51:43;;;;;;;;;;;24.60;79.30;24.60;99556.00;;;;339139;28;83442;-90
2021/08/16 00:51:55;;;;;;;;;;;24.60;79.80;24.50;99553.00;;;;341403;28;91376;-90
2021/08/16 00:52:06;;;;;;;;;;;24.60;79.30;24.50;99554.00;;;;339145;28;82584;-90
2021/08/16 00:52:19;;;;;;;;;;;24.60;79.00;24.50;99551.00;;;;340016;28;91703;-90
2021/08/16 00:52:30;;;;;;;;;;;24.60;78.90;24.40;99553.00;;;;339093;28;83460;-91
2021/08/16 00:52:42;;;;;;;;;;;24.60;79.10;24.50;99554.00;;;;337364;28;91569;-90
2021/08/16 00:52:56;;;;;;;;;;;24.60;79.10;24.40;99545.00;;;;342875;27;83611;-90
2021/08/16 00:53:07;;;;;;;;;;;24.60;79.20;24.40;99548.00;;;;341266;28;91107;-91
2021/08/16 00:53:19;;;;;;;;;;;24.60;79.20;24.40;99551.00;;;;343047;28;82703;-90
2021/08/16 00:53:31;;;;;;;;;;;24.60;79.10;24.50;99550.00;;;;340069;28;91598;-90
2021/08/16 00:53:44;;;;;;;;;;;24.60;79.20;24.50;99556.00;;;;340246;28;82595;-90
2021/08/16 00:53:55;;;;;;;;;;;24.60;79.20;24.50;99554.00;;;;341291;28;90361;-90
2021/08/16 00:54:08;;;;;;;;;;;24.60;79.20;24.40;99552.00;;;;341798;28;83371;-90
2021/08/16 00:54:20;;;;;;;;;;;24.60;79.20;24.40;99547.00;;;;338683;28;93407;-90
2021/08/16 00:54:31;;;;;;;;;;;24.60;79.20;24.50;99552.00;;;;343056;28;83456;-90
2021/08/16 00:54:43;;;;;;;;;;;24.50;79.20;24.50;99560.00;;;;338697;28;91638;-90
2021/08/16 00:54:58;;;;;;;;;;;24.60;79.30;24.50;99550.00;;;;340486;28;82522;-90
2021/08/16 00:55:10;;;;;;;;;;;24.50;79.40;24.50;99555.00;;;;341061;28;92259;-90
2021/08/16 00:55:22;;;;;;;;;;;24.60;79.70;24.50;99546.00;;;;337892;28;83475;-90
2021/08/16 00:55:34;;;;;;;;;;;24.60;79.40;24.40;99554.00;;;;338561;28;90625;-90
2021/08/16 00:55:46;;;;;;;;;;;24.60;79.30;24.50;99563.00;;;;342004;27;82613;-90
2021/08/16 00:55:58;;;;;;;;;;;24.60;79.30;24.50;99553.00;;;;340872;28;91845;-90
2021/08/16 00:56:09;;;;;;;;;;;24.50;79.40;24.40;99551.00;;;;346077;28;82715;-90
2021/08/16 00:56:26;;;;;;;;;;;24.60;79.50;24.50;99544.00;;;;342590;28;92361;-90
2021/08/16 00:56:38;;;;;;;;;;;24.50;79.50;24.50;99560.00;;;;341769;28;82693;-90
2021/08/16 00:56:50;;;;;;;;;;;24.50;79.60;24.50;99553.00;;;;341714;28;90760;-90
2021/08/16 00:57:03;;;;;;;;;;;24.50;79.70;24.40;99550.00;;;;341801;28;83409;-90
2021/08/16 00:57:15;;;;;;;;;;;24.50;79.50;24.40;99562.00;;;;339981;28;92002;-90
2021/08/16 00:57:28;;;;;;;;;;;24.50;79.50;24.40;99551.00;;;;343198;28;83449;-90
2021/08/16 00:57:40;;;;;;;;;;;24.50;79.70;24.40;99548.00;;;;341489;28;90418;-90
2021/08/16 00:57:54;;;;;;;;;;;24.50;79.30;24.40;99553.00;;;;341779;28;83362;-90
2021/08/16 00:58:06;;;;;;;;;;;24.50;79.30;24.30;99557.00;;;;340075;28;91567;-90
2021/08/16 00:58:17;;;;;;;;;;;24.50;79.50;24.30;99553.00;;;;343183;28;83494;-91
2021/08/16 00:58:29;;;;;;;;;;;24.50;79.50;24.30;99554.00;;;;341283;28;91502;-90
2021/08/16 00:58:41;;;;;;;;;;;24.50;79.40;24.30;99553.00;;;;343165;28;82541;-90
2021/08/16 00:59:00;;;;;;;;;;;24.50;79.50;24.30;99557.00;;;;342118;28;87718;-90
2021/08/16 00:59:12;;;;;;;;;;;24.50;79.40;24.30;99556.00;;;;341617;28;82481;-90
2021/08/16 00:59:23;;;;;;;;;;;24.50;79.60;24.30;99549.00;;;;342687;28;90398;-90
2021/08/16 00:59:35;;;;;;;;;;;24.50;79.50;24.30;99548.00;;;;340446;28;83466;-90
2021/08/16 00:59:47;;;;;;;;;;;24.50;79.60;24.40;99543.00;;;;341454;28;91723;-90